Time;durP1;ratioP1;P1;durP2;ratioP2;P2;SDS_P1;SDS_P2;PMS_P1;PMS_P2;Temp;Humidity;BMP_temperature;BMP_pressure;BME280_temperature;BME280_humidity;BME280_pressure;Samples;Min_cycle;Max_cycle;Signal;HPM_P1;HPM_P2
2021/11/10 00:00:32;;;;;;;22.40;12.60;;;;;;;-0.85;88.19;99358.41;107917;1275;69433;-63
2021/11/10 00:03:10;;;;;;;39.60;21.10;;;;;;;-0.86;88.18;99359.80;107906;1271;68176;-64
2021/11/10 00:05:41;;;;;;;25.80;17.20;;;;;;;-0.86;88.24;99358.95;107867;1271;69405;-67
2021/11/10 00:08:15;;;;;;;22.20;15.40;;;;;;;-0.86;88.20;99362.19;107890;1272;58171;-64
2021/11/10 00:10:45;;;;;;;25.20;16.50;;;;;;;-0.85;88.19;99362.70;107822;1275;58110;-71
2021/11/10 00:13:18;;;;;;;16.50;12.50;;;;;;;-0.84;88.17;99360.30;107979;1272;69768;-69
2021/11/10 00:15:50;;;;;;;35.90;18.30;;;;;;;-0.83;88.15;99359.81;107894;1272;67505;-71
2021/11/10 00:18:20;;;;;;;27.10;15.20;;;;;;;-0.83;88.12;99360.33;107925;1271;68899;-64
2021/11/10 00:20:51;;;;;;;28.40;17.90;;;;;;;-0.81;88.29;99362.21;108008;1272;58176;-63
2021/11/10 00:23:21;;;;;;;35.80;17.30;;;;;;;-0.80;88.38;99364.95;107986;1272;58175;-69
2021/11/10 00:25:51;;;;;;;;;;;;;;;-0.78;88.46;99362.58;107963;1271;69851;-67
2021/11/10 00:28:21;;;;;;;35.70;17.20;;;;;;;-0.78;88.79;99358.29;107887;1271;67674;-65
2021/11/10 00:30:52;;;;;;;46.70;19.80;;;;;;;-0.74;88.56;99358.47;107880;1270;67736;-66
2021/11/10 00:33:27;;;;;;;67.40;25.90;;;;;;;-0.71;88.47;99355.73;107676;1274;58128;-62
2021/11/10 00:35:58;;;;;;;38.20;17.20;;;;;;;-0.71;88.82;99346.66;107875;1272;58052;-68
2021/11/10 00:38:29;;;;;;;48.50;20.30;;;;;;;-0.71;88.37;99338.61;107923;1272;69192;-63
2021/11/10 00:41:00;;;;;;;36.20;21.30;;;;;;;-0.73;87.80;99332.61;107988;1273;67895;-62
2021/11/10 00:43:30;;;;;;;;;;;;;;;-0.76;87.53;99326.09;107850;1275;68431;-70
2021/11/10 00:46:01;;;;;;;36.20;22.10;;;;;;;-0.87;88.39;99322.30;107854;1272;58106;-63
2021/11/10 00:48:33;;;;;;;37.20;19.20;;;;;;;-0.92;88.36;99316.81;107774;1275;58097;-69
2021/11/10 00:51:04;;;;;;;32.80;18.00;;;;;;;-0.93;88.43;99310.47;107842;1275;70016;-64
2021/11/10 00:53:35;;;;;;;25.50;15.70;;;;;;;-0.93;88.45;99309.95;107853;1272;67967;-66
2021/11/10 00:56:05;;;;;;;;;;;;;;;-0.94;88.49;99303.44;107961;1272;68469;-63
2021/11/10 00:58:35;;;;;;;23.70;14.20;;;;;;;-0.99;88.56;99296.92;107788;1272;58992;-62
2021/11/10 01:01:10;;;;;;;24.70;14.10;;;;;;;-1.00;88.16;99291.10;107695;1276;58935;-63
2021/11/10 01:03:40;;;;;;;27.50;13.30;;;;;;;-1.02;88.16;99288.02;107986;1272;70838;-69
2021/11/10 01:06:10;;;;;;;33.60;16.40;;;;;;;-1.05;87.96;99285.27;107893;1271;68672;-65
2021/11/10 01:08:40;;;;;;;26.00;16.20;;;;;;;-1.06;87.98;99285.95;107836;1273;68689;-66
2021/11/10 01:11:10;;;;;;;24.40;14.00;;;;;;;-1.07;88.10;99290.23;107986;1272;58990;-63
2021/11/10 01:13:41;;;;;;;59.80;24.10;;;;;;;-1.07;88.06;99290.05;107893;1273;58885;-64
2021/11/10 01:16:11;;;;;;;50.40;22.60;;;;;;;-1.15;88.84;99284.02;107798;1274;70786;-62
2021/11/10 01:18:42;;;;;;;43.50;20.70;;;;;;;-1.20;89.00;99282.13;107944;1271;68698;-61
2021/11/10 01:21:15;;;;;;;68.10;22.10;;;;;;;-1.25;89.24;99283.98;107659;1275;69484;-70
2021/11/10 01:23:45;;;;;;;48.00;18.80;;;;;;;-1.29;89.52;99280.20;107683;1274;58963;-64
2021/11/10 01:26:15;;;;;;;54.20;20.20;;;;;;;-1.33;89.68;99276.59;107845;1275;58902;-63
2021/11/10 01:28:45;;;;;;;;;;;;;;;-1.34;90.07;99277.77;107702;1273;70703;-64
2021/11/10 01:31:16;;;;;;;64.20;21.00;;;;;;;-1.36;90.42;99279.84;108009;1272;68679;-62
2021/11/10 01:33:47;;;;;;;31.70;17.10;;;;;;;-1.36;90.54;99280.52;107788;1275;69256;-64
2021/11/10 01:36:19;;;;;;;80.70;23.40;;;;;;;-1.34;90.39;99291.47;107762;1274;59351;-62
2021/11/10 01:38:49;;;;;;;28.70;14.70;;;;;;;-1.34;90.34;99291.30;107698;1274;58936;-63
2021/11/10 01:41:19;;;;;;;47.60;17.70;;;;;;;-1.32;90.19;99288.06;107597;1275;70618;-65
2021/11/10 01:43:50;;;;;;;10.80;6.20;;;;;;;-1.28;90.22;99290.98;107824;1274;67846;-64
2021/11/10 01:46:20;;;;;;;27.30;11.40;;;;;;;-1.24;90.07;99287.24;107908;1271;69484;-61
2021/11/10 01:48:51;;;;;;;30.70;11.60;;;;;;;-1.20;89.75;99284.18;107866;1275;58972;-62
2021/11/10 01:51:24;;;;;;;;;;;;;;;-1.16;89.68;99287.27;107785;1273;58905;-69
2021/11/10 01:53:56;;;;;;;18.00;10.40;;;;;;;-1.13;89.48;99292.92;108020;1272;71194;-61
2021/11/10 01:56:28;;;;;;;;;;;;;;;-1.11;89.09;99293.80;107840;1274;67836;-62
2021/11/10 01:58:58;;;;;;;14.80;10.40;;;;;;;-1.11;88.74;99291.76;107732;1274;68649;-65
2021/11/10 02:01:30;;;;;;;38.10;12.90;;;;;;;-1.12;88.67;99286.95;107699;1275;58957;-64
2021/11/10 02:04:01;;;;;;;19.00;10.60;;;;;;;-1.12;88.84;99283.70;107652;1275;58889;-66
2021/11/10 02:06:32;;;;;;;46.30;16.70;;;;;;;-1.12;88.80;99283.01;107954;1272;70679;-66
2021/11/10 02:09:35;;;;;;;18.90;11.50;;;;;;;-1.13;89.04;99279.92;107876;1271;67921;-63
2021/11/10 02:12:08;;;;;;;88.10;25.20;;;;;;;-1.11;89.17;99278.05;107832;1275;68531;-64
2021/11/10 02:14:44;;;;;;;48.00;18.80;;;;;;;-1.14;89.68;99281.64;107895;1272;58971;-63
2021/11/10 02:17:19;;;;;;;31.50;15.60;;;;;;;-1.15;89.80;99275.48;107603;1273;58967;-67
2021/11/10 02:19:53;;;;;;;21.40;11.60;;;;;;;-1.12;89.73;99277.02;107878;1274;70878;-61
2021/11/10 02:22:33;;;;;;;25.00;13.90;;;;;;;-1.08;89.60;99278.23;107881;1272;67853;-68
2021/11/10 02:25:05;;;;;;;12.10;7.80;;;;;;;-1.03;89.58;99281.34;107800;1276;67636;-62
2021/11/10 02:27:39;;;;;;;26.70;12.10;;;;;;;-0.99;89.53;99281.00;107849;1274;58993;-62
2021/11/10 02:30:17;;;;;;;39.20;14.60;;;;;;;-0.96;89.55;99272.13;107871;1273;58900;-63
2021/11/10 02:33:00;;;;;;;42.40;14.80;;;;;;;-0.95;89.60;99273.83;107916;1272;70109;-70
2021/11/10 02:35:32;;;;;;;13.20;8.10;;;;;;;-0.92;89.59;99284.95;107836;1275;67876;-66
2021/11/10 02:38:05;;;;;;;17.80;10.80;;;;;;;-0.87;89.40;99293.02;107685;1277;68490;-67
2021/11/10 02:40:35;;;;;;;19.30;11.50;;;;;;;-0.81;89.16;99296.30;107870;1273;58966;-63
2021/11/10 02:43:05;;;;;;;17.90;10.20;;;;;;;-0.76;89.26;99290.31;107885;1275;58904;-64
2021/11/10 02:45:35;;;;;;;29.10;15.00;;;;;;;-0.72;89.32;99288.95;107895;1271;70080;-63
2021/11/10 02:48:05;;;;;;;21.60;11.20;;;;;;;-0.69;89.49;99284.86;107864;1272;67900;-62
2021/11/10 02:50:36;;;;;;;44.30;18.10;;;;;;;-0.63;89.51;99284.70;107771;1274;69469;-62
2021/11/10 02:53:09;;;;;;;210.80;38.20;;;;;;;-0.60;89.92;99287.45;107892;1273;58971;-68
2021/11/10 02:55:39;;;;;;;73.20;23.20;;;;;;;-0.69;90.11;99291.52;107912;1274;58904;-69
2021/11/10 02:58:10;;;;;;;;;;;;;;;-0.71;90.03;99284.50;107862;1274;69934;-63
2021/11/10 03:00:42;;;;;;;137.60;28.30;;;;;;;-0.72;90.00;99280.73;107891;1272;68763;-63
2021/11/10 03:03:12;;;;;;;37.60;17.30;;;;;;;-0.77;90.18;99284.49;107727;1274;69292;-63
2021/11/10 03:05:48;;;;;;;22.60;13.50;;;;;;;-0.75;90.12;99283.45;107894;1271;58955;-62
2021/11/10 03:08:20;;;;;;;25.20;13.20;;;;;;;-0.71;90.07;99285.70;107783;1275;58917;-62
2021/11/10 03:10:56;;;;;;;26.20;15.50;;;;;;;-0.66;89.99;99292.56;107836;1272;70669;-62
2021/11/10 03:13:28;;;;;;;143.30;27.30;;;;;;;-0.61;90.03;99294.11;107843;1271;68680;-63
2021/11/10 03:15:59;;;;;;;99.70;25.60;;;;;;;-0.62;90.37;99295.48;107799;1272;68359;-64
2021/11/10 03:18:30;;;;;;;12.80;8.70;;;;;;;-0.65;90.40;99294.96;107849;1275;58987;-67
2021/11/10 03:21:01;;;;;;;32.90;14.10;;;;;;;-0.60;90.12;99293.79;107857;1272;58880;-62
2021/11/10 03:23:32;;;;;;;30.80;13.80;;;;;;;-0.56;90.10;99287.10;107722;1274;69784;-63
2021/11/10 03:26:02;;;;;;;153.00;26.10;;;;;;;-0.54;90.25;99287.45;107867;1272;68567;-62
2021/11/10 03:28:32;;;;;;;193.80;29.10;;;;;;;-0.66;90.35;99285.89;107858;1272;68652;-66
2021/11/10 03:31:02;;;;;;;;;;;;;;;-0.80;90.55;99278.15;107769;1272;58952;-63
2021/11/10 03:33:32;;;;;;;68.70;18.50;;;;;;;-0.86;91.00;99276.94;107892;1273;58945;-64
2021/11/10 03:36:03;;;;;;;27.50;12.20;;;;;;;-0.87;91.17;99278.14;107857;1274;70771;-63
2021/11/10 03:38:37;;;;;;;21.00;10.70;;;;;;;-0.83;91.21;99276.09;107906;1275;68104;-62
2021/11/10 03:41:09;;;;;;;19.00;9.00;;;;;;;-0.77;91.26;99275.59;107899;1271;69463;-65
2021/11/10 03:43:39;;;;;;;46.20;15.50;;;;;;;-0.70;91.20;99276.98;107853;1272;58901;-70
2021/11/10 03:46:09;;;;;;;;;;;;;;;-0.67;91.13;99274.93;107791;1272;58941;-66
2021/11/10 03:48:40;;;;;;;18.50;9.00;;;;;;;-0.61;91.07;99270.14;107931;1272;70775;-70
2021/11/10 03:51:10;;;;;;;44.40;17.10;;;;;;;-0.55;91.10;99268.78;107966;1272;68489;-63
2021/11/10 03:53:41;;;;;;;54.40;18.90;;;;;;;-0.49;91.08;99257.14;107887;1272;68682;-63
2021/11/10 03:56:12;;;;;;;24.80;13.00;;;;;;;-0.42;90.95;99258.35;107990;1272;58963;-63
2021/11/10 03:58:43;;;;;;;23.30;11.60;;;;;;;-0.35;90.92;99260.74;107918;1274;58907;-63
2021/11/10 04:01:18;;;;;;;108.40;20.50;;;;;;;-0.29;90.80;99265.73;107919;1271;70811;-67
2021/11/10 04:03:48;;;;;;;;;;;;;;;-0.23;90.49;99262.64;107844;1274;68575;-64
2021/11/10 04:06:19;;;;;;;9.40;5.30;;;;;;;-0.19;90.26;99251.33;107887;1271;69420;-70
2021/11/10 04:08:51;;;;;;;19.90;11.30;;;;;;;-0.16;90.31;99248.92;107922;1275;58961;-65
2021/11/10 04:11:22;;;;;;;20.00;10.50;;;;;;;-0.12;90.29;99245.15;107863;1272;58943;-70
2021/11/10 04:13:52;;;;;;;12.60;7.20;;;;;;;-0.09;90.21;99240.69;107875;1274;70005;-63
2021/11/10 04:16:23;;;;;;;43.20;12.90;;;;;;;-0.05;89.64;99237.44;107912;1272;68688;-65
2021/11/10 04:18:57;;;;;;;81.60;16.10;;;;;;;-0.03;89.70;99235.89;107920;1274;69616;-68
2021/11/10 04:21:28;;;;;;;70.00;17.40;;;;;;;-0.03;90.03;99231.42;107981;1272;58957;-62
2021/11/10 04:23:59;;;;;;;14.00;8.00;;;;;;;0.02;89.87;99232.61;107896;1271;58875;-69
2021/11/10 04:26:33;;;;;;;20.80;7.60;;;;;;;0.06;89.99;99230.04;107939;1272;70789;-68
2021/11/10 04:29:06;;;;;;;64.10;15.10;;;;;;;0.09;90.01;99229.17;107709;1274;67928;-65
2021/11/10 04:31:37;;;;;;;65.90;14.50;;;;;;;0.13;90.16;99227.98;107728;1274;69712;-65
2021/11/10 04:34:07;;;;;;;50.90;12.80;;;;;;;0.18;89.81;99228.98;107729;1274;58920;-68
2021/11/10 04:36:38;;;;;;;39.00;10.80;;;;;;;0.21;89.97;99232.23;107931;1272;58918;-71
2021/11/10 04:39:08;;;;;;;48.60;13.70;;;;;;;0.25;89.99;99239.09;107881;1275;70841;-65
2021/11/10 04:41:37;;;;;;;74.00;15.20;;;;;;;0.30;89.85;99244.56;107894;1272;66972;-64
2021/11/10 04:44:07;;;;;;;75.70;15.80;;;;;;;0.32;90.05;99245.93;107793;1275;69162;-62
2021/11/10 04:46:40;;;;;;;23.20;11.00;;;;;;;0.34;90.32;99251.59;107879;1272;58989;-63
2021/11/10 04:49:09;;;;;;;19.40;10.60;;;;;;;0.38;90.17;99259.47;107762;1272;58904;-69
2021/11/10 04:51:39;;;;;;;22.30;8.30;;;;;;;0.43;90.20;99262.04;108001;1272;70792;-67
2021/11/10 04:54:10;;;;;;;22.40;9.20;;;;;;;0.47;90.18;99262.36;107383;1272;692947;-67
2021/11/10 04:56:40;;;;;;;12.20;7.40;;;;;;;0.52;90.10;99260.46;107901;1271;68618;-68
2021/11/10 04:59:10;;;;;;;16.00;8.20;;;;;;;0.56;90.06;99260.80;107822;1274;59334;-65
2021/11/10 05:01:43;;;;;;;18.40;10.50;;;;;;;0.60;90.03;99260.61;107922;1271;58849;-70
2021/11/10 05:04:13;;;;;;;18.20;10.00;;;;;;;0.63;90.00;99258.89;107915;1275;69227;-69
2021/11/10 05:06:44;;;;;;;22.30;7.60;;;;;;;0.68;90.01;99264.17;107938;1271;67853;-65
2021/11/10 05:09:14;;;;;;;18.00;8.60;;;;;;;0.72;89.93;99268.63;107758;1273;69466;-70
2021/11/10 05:11:43;;;;;;;16.40;8.40;;;;;;;0.77;89.86;99269.63;107983;1272;59338;-67
2021/11/10 05:14:13;;;;;;;14.90;7.80;;;;;;;0.80;89.74;99267.75;107833;1274;58948;-65
2021/11/10 05:16:43;;;;;;;19.40;9.30;;;;;;;0.83;89.20;99266.86;107785;1272;69137;-62
2021/11/10 05:19:13;;;;;;;16.10;8.60;;;;;;;0.86;89.03;99272.86;107845;1275;67983;-67
2021/11/10 05:21:42;;;;;;;20.00;11.20;;;;;;;0.89;89.13;99276.45;107793;1275;70157;-69
2021/11/10 05:24:12;;;;;;;16.90;10.00;;;;;;;0.92;89.43;99281.93;107896;1272;58920;-63
2021/11/10 05:26:42;;;;;;;18.60;9.50;;;;;;;0.95;89.62;99283.29;107915;1272;58931;-61
2021/11/10 05:29:11;;;;;;;;;;;;;;;0.99;89.86;99282.09;107979;1272;70013;-67
2021/11/10 05:31:41;;;;;;;24.40;12.00;;;;;;;1.01;90.21;99281.02;107898;1272;68661;-66
2021/11/10 05:34:11;;;;;;;21.70;11.80;;;;;;;1.04;90.16;99284.45;107857;1271;69533;-70
2021/11/10 05:36:41;;;;;;;36.00;12.90;;;;;;;1.08;90.00;99285.47;107629;1274;58968;-64
2021/11/10 05:39:10;;;;;;;;;;;;;;;1.12;90.00;99294.21;108003;1272;58885;-63
2021/11/10 05:41:40;;;;;;;50.10;15.90;;;;;;;1.14;90.26;99298.66;107934;1272;69970;-67
2021/11/10 05:44:09;;;;;;;42.90;15.30;;;;;;;1.17;90.32;99299.67;107916;1272;67851;-63
2021/11/10 05:46:40;;;;;;;25.20;11.30;;;;;;;1.20;90.36;99301.04;107949;1271;68651;-65
2021/11/10 05:49:09;;;;;;;25.60;12.50;;;;;;;1.25;90.15;99302.73;107931;1271;58989;-69
2021/11/10 05:51:38;;;;;;;38.50;15.10;;;;;;;1.30;90.19;99305.45;107912;1275;58868;-62
2021/11/10 05:54:08;;;;;;;45.50;16.30;;;;;;;1.34;90.42;99307.49;107952;1272;70124;-70
2021/11/10 05:56:41;;;;;;;58.30;17.50;;;;;;;1.38;90.43;99306.79;107879;1268;67709;-64
2021/11/10 05:59:10;;;;;;;50.10;17.50;;;;;;;1.43;90.40;99308.98;107927;1270;67721;-66
2021/11/10 06:01:40;;;;;;;27.70;12.60;;;;;;;1.49;90.17;99313.42;107761;1272;59330;-62
2021/11/10 06:04:09;;;;;;;46.00;15.80;;;;;;;1.53;90.13;99314.09;107899;1272;58897;-67
2021/11/10 06:06:39;;;;;;;39.40;16.70;;;;;;;1.58;90.27;99311.83;107855;1272;70720;-64
2021/11/10 06:09:08;;;;;;;39.20;15.70;;;;;;;1.62;90.46;99317.30;107966;1272;68508;-71
2021/11/10 06:11:39;;;;;;;53.00;18.50;;;;;;;1.65;90.54;99323.97;107854;1271;69523;-68
2021/11/10 06:14:09;;;;;;;57.10;19.10;;;;;;;1.70;90.69;99322.73;107825;1272;58932;-65
2021/11/10 06:16:40;;;;;;;54.30;19.60;;;;;;;1.76;90.66;99323.38;107707;1271;58923;-71
2021/11/10 06:19:09;;;;;;;44.70;17.80;;;;;;;1.80;90.67;99324.90;107837;1272;71792;-67
2021/11/10 06:21:39;;;;;;;43.90;17.60;;;;;;;1.86;90.43;99325.72;107797;1274;67843;-70
2021/11/10 06:24:08;;;;;;;36.40;15.30;;;;;;;1.91;90.21;99324.65;107644;1275;69330;-70
2021/11/10 06:26:37;;;;;;;49.00;19.50;;;;;;;1.96;90.17;99325.13;107666;1271;58926;-67
2021/11/10 06:29:07;;;;;;;26.90;12.00;;;;;;;2.04;90.07;99329.37;107750;1272;58960;-70
2021/11/10 06:31:36;;;;;;;48.70;20.20;;;;;;;2.11;90.01;99328.11;107781;1274;70092;-66
2021/11/10 06:34:06;;;;;;;31.80;14.40;;;;;;;2.15;90.04;99323.27;107808;1272;67849;-71
2021/11/10 06:36:36;;;;;;;;;;;;;;;2.20;89.94;99316.67;107716;1272;68628;-71
2021/11/10 06:39:06;;;;;;;23.50;10.30;;;;;;;2.24;90.01;99321.29;107803;1271;58982;-71
2021/11/10 06:41:35;;;;;;;27.80;12.50;;;;;;;2.30;89.92;99324.50;107836;1273;58983;-70
2021/11/10 06:44:05;;;;;;;26.80;12.80;;;;;;;2.37;90.01;99323.91;107847;1271;70784;-70
2021/11/10 06:46:34;;;;;;;45.50;19.30;;;;;;;2.43;89.82;99325.05;107849;1272;68591;-71
2021/11/10 06:49:05;;;;;;;33.00;16.60;;;;;;;2.46;89.89;99326.25;107684;1275;68656;-70
2021/11/10 06:51:36;;;;;;;33.40;16.00;;;;;;;2.50;89.79;99325.51;107987;1271;58912;-68
2021/11/10 06:54:06;;;;;;;19.50;10.60;;;;;;;2.55;89.75;99327.02;107812;1271;58855;-64
2021/11/10 06:56:49;;;;;;;33.20;16.60;;;;;;;2.60;89.62;99330.91;107914;1272;71872;-67
2021/11/10 06:59:21;;;;;;;24.30;12.70;;;;;;;2.67;89.61;99338.60;108040;1271;68705;-69
2021/11/10 07:01:50;;;;;;;25.70;15.10;;;;;;;2.72;88.93;99334.92;107862;1271;68859;-63
2021/11/10 07:04:20;;;;;;;35.30;18.30;;;;;;;2.76;88.95;99334.38;107884;1271;58948;-66
2021/11/10 07:06:51;;;;;;;27.00;14.40;;;;;;;2.78;89.04;99336.76;107846;1275;58910;-63
2021/11/10 07:09:20;;;;;;;36.90;18.00;;;;;;;2.86;89.24;99333.75;107939;1271;69043;-69
2021/11/10 07:11:50;;;;;;;25.60;13.10;;;;;;;2.93;89.30;99330.56;107860;1271;69218;-69
2021/11/10 07:14:20;;;;;;;21.50;11.80;;;;;;;3.01;89.06;99325.47;107793;1271;70010;-70
2021/11/10 07:16:49;;;;;;;32.60;16.70;;;;;;;3.08;88.95;99326.95;107680;1274;58905;-65
2021/11/10 07:19:19;;;;;;;25.50;13.00;;;;;;;3.15;89.18;99329.63;107871;1272;58935;-62
2021/11/10 07:21:49;;;;;;;32.60;18.20;;;;;;;3.23;88.95;99323.48;107922;1272;70020;-62
2021/11/10 07:24:18;;;;;;;35.20;19.30;;;;;;;3.27;88.54;99326.18;107934;1272;67889;-71
2021/11/10 07:26:47;;;;;;;30.30;16.30;;;;;;;3.30;88.53;99328.39;107878;1271;69107;-68
2021/11/10 07:29:17;;;;;;;24.10;13.90;;;;;;;3.34;88.51;99327.48;107925;1271;58956;-66
2021/11/10 07:31:46;;;;;;;25.40;14.90;;;;;;;3.40;88.33;99330.33;107897;1275;58920;-64
2021/11/10 07:34:15;;;;;;;23.80;12.80;;;;;;;3.43;88.12;99328.55;107839;1275;69940;-68
2021/11/10 07:36:45;;;;;;;26.20;16.00;;;;;;;3.47;87.89;99332.30;107841;1271;68736;-67
2021/11/10 07:39:17;;;;;;;;;;;;;;;3.49;87.68;99332.61;107997;1272;69730;-68
2021/11/10 07:41:55;;;;;;;24.60;15.20;;;;;;;3.55;87.96;99333.39;107529;1273;58964;-69
2021/11/10 07:44:25;;;;;;;22.40;12.10;;;;;;;3.58;87.41;99331.29;107743;1274;58883;-66
2021/11/10 07:47:08;;;;;;;20.70;10.90;;;;;;;3.63;86.95;99331.89;107981;1271;70761;-61
2021/11/10 07:49:37;;;;;;;23.40;13.00;;;;;;;3.68;87.14;99333.73;107941;1272;68430;-66
2021/11/10 07:52:08;;;;;;;26.70;14.20;;;;;;;3.72;86.93;99331.09;107823;1275;69403;-64
2021/11/10 07:54:38;;;;;;;23.10;12.40;;;;;;;3.75;86.99;99329.33;107918;1271;58990;-65
2021/11/10 07:57:08;;;;;;;26.70;14.80;;;;;;;3.80;86.99;99336.33;107820;1272;58862;-67
2021/11/10 07:59:37;;;;;;;20.80;12.30;;;;;;;3.86;86.99;99335.36;107761;1274;70845;-64
2021/11/10 08:02:12;;;;;;;24.70;13.10;;;;;;;3.94;86.49;99330.08;107810;1274;68761;-70
2021/11/10 08:04:44;;;;;;;26.70;14.40;;;;;;;3.95;85.85;99332.29;107703;1272;69562;-64
2021/11/10 08:07:13;;;;;;;27.30;16.40;;;;;;;3.97;85.64;99330.71;107585;1274;58975;-62
2021/11/10 08:09:42;;;;;;;27.50;15.20;;;;;;;4.03;85.81;99332.49;107770;1274;58935;-66
2021/11/10 08:12:12;;;;;;;26.70;15.20;;;;;;;4.12;85.67;99331.52;107954;1272;71346;-62
2021/11/10 08:14:41;;;;;;;22.10;14.50;;;;;;;4.21;85.40;99333.77;107976;1271;67757;-66
2021/11/10 08:17:10;;;;;;;28.10;16.60;;;;;;;4.32;85.05;99334.45;107740;1274;68666;-70
2021/11/10 08:19:40;;;;;;;26.20;15.60;;;;;;;4.43;85.23;99334.60;107712;1274;58977;-65
2021/11/10 08:22:13;;;;;;;25.90;14.90;;;;;;;4.55;85.15;99333.18;107975;1274;58980;-64
2021/11/10 08:24:45;;;;;;;22.00;12.30;;;;;;;4.69;84.37;99335.02;107913;1274;69924;-67
2021/11/10 08:27:15;;;;;;;22.60;13.90;;;;;;;4.83;84.16;99328.88;107747;1272;68161;-69
2021/11/10 08:29:45;;;;;;;24.80;15.00;;;;;;;4.94;83.60;99329.86;107688;1274;70046;-67
2021/11/10 08:32:14;;;;;;;21.80;13.70;;;;;;;5.00;83.33;99337.70;107872;1275;58919;-64
2021/11/10 08:34:45;;;;;;;21.80;13.40;;;;;;;5.06;82.37;99337.22;107853;1272;58896;-67
2021/11/10 08:37:14;;;;;;;;;;;;;;;5.19;82.43;99331.61;107810;1272;69803;-67
2021/11/10 08:39:43;;;;;;;18.10;11.40;;;;;;;5.37;82.20;99332.60;107993;1272;68442;-69
2021/11/10 08:42:12;;;;;;;18.80;13.00;;;;;;;5.52;81.21;99334.54;107858;1272;69433;-67
2021/11/10 08:44:45;;;;;;;17.00;10.50;;;;;;;5.65;80.86;99337.19;107933;1272;58977;-69
2021/11/10 08:47:14;;;;;;;17.40;11.50;;;;;;;5.78;79.44;99335.86;107881;1272;58856;-67
2021/11/10 08:49:44;;;;;;;18.80;12.20;;;;;;;5.90;79.44;99333.17;107897;1271;70186;-68
2021/11/10 08:52:15;;;;;;;17.00;9.80;;;;;;;6.04;79.67;99331.65;107887;1272;67859;-71
2021/11/10 08:54:44;;;;;;;17.30;10.70;;;;;;;6.21;78.60;99330.53;107835;1271;69467;-69
2021/11/10 08:57:13;;;;;;;13.30;9.30;;;;;;;6.36;79.01;99331.74;107902;1272;58986;-69
2021/11/10 08:59:42;;;;;;;15.40;9.90;;;;;;;6.59;76.30;99325.77;107991;1272;58907;-68
2021/11/10 09:02:12;;;;;;;14.40;10.40;;;;;;;6.80;77.00;99323.67;107912;1271;71469;-66
2021/11/10 09:04:42;;;;;;;15.20;10.00;;;;;;;6.96;75.13;99319.39;107986;1272;69320;-70
2021/11/10 09:07:11;;;;;;;17.00;11.10;;;;;;;7.24;75.19;99315.82;107890;1272;69302;-68
2021/11/10 09:09:40;;;;;;;13.10;8.80;;;;;;;7.47;74.89;99314.47;107968;1272;59264;-71
2021/11/10 09:12:10;;;;;;;15.80;11.00;;;;;;;7.70;74.69;99309.60;107850;1271;58951;-70
2021/11/10 09:14:39;;;;;;;14.20;9.80;;;;;;;8.23;73.66;99308.75;107917;1272;71415;-70
2021/11/10 09:17:10;;;;;;;11.90;8.70;;;;;;;8.61;70.57;99307.65;107875;1271;68602;-67
2021/11/10 09:19:39;;;;;;;15.40;10.10;;;;;;;8.77;67.97;99305.21;107893;1272;69093;-67
2021/11/10 09:22:09;;;;;;;14.80;10.60;;;;;;;9.16;67.93;99297.86;107905;1271;58964;-66
2021/11/10 09:24:39;;;;;;;;;;;;;;;10.08;64.86;99293.08;107968;1272;58913;-64
2021/11/10 09:27:10;;;;;;;16.30;10.80;;;;;;;11.09;61.93;99288.20;107842;1271;71356;-68
2021/11/10 09:29:39;;;;;;;15.80;11.50;;;;;;;11.93;59.75;99284.98;107906;1272;68649;-67
2021/11/10 09:32:09;;;;;;;15.80;11.10;;;;;;;12.28;57.18;99277.33;107902;1272;70148;-70
2021/11/10 09:34:38;;;;;;;13.10;10.80;;;;;;;12.65;56.46;99277.36;107821;1271;58898;-68
2021/11/10 09:37:07;;;;;;;11.80;9.10;;;;;;;13.43;53.80;99275.38;107981;1272;58928;-72
2021/11/10 09:39:37;;;;;;;11.30;8.30;;;;;;;14.18;54.79;99270.08;107951;1271;70764;-71
2021/11/10 09:42:09;;;;;;;11.50;9.40;;;;;;;15.12;54.21;99271.29;107990;1272;68049;-71
2021/11/10 09:44:39;;;;;;;12.50;8.00;;;;;;;15.84;49.42;99268.34;107886;1272;68867;-73
2021/11/10 09:47:09;;;;;;;13.60;9.50;;;;;;;16.57;47.78;99267.71;107815;1270;58913;-68
2021/11/10 09:49:38;;;;;;;10.40;8.20;;;;;;;17.23;45.64;99266.48;107944;1271;58938;-72
2021/11/10 09:52:09;;;;;;;10.60;8.30;;;;;;;17.90;45.52;99261.31;107644;1274;70049;-64
2021/11/10 09:54:39;;;;;;;10.60;8.40;;;;;;;18.42;43.21;99262.02;107929;1275;67760;-71
2021/11/10 09:57:08;;;;;;;9.40;7.90;;;;;;;18.75;42.51;99255.48;107909;1272;68661;-71
2021/11/10 09:59:38;;;;;;;12.30;10.20;;;;;;;19.05;41.01;99250.51;107826;1275;58877;-68
2021/11/10 10:02:27;;;;;;;10.70;8.50;;;;;;;19.39;40.65;99251.15;107737;1271;58875;-68
2021/11/10 10:04:58;;;;;;;11.20;9.10;;;;;;;19.68;41.13;99247.56;107768;1277;70320;-68
2021/11/10 10:07:28;;;;;;;10.90;8.90;;;;;;;20.13;38.40;99238.90;107700;1277;68487;-66
2021/11/10 10:09:59;;;;;;;9.30;8.30;;;;;;;20.43;39.05;99237.88;107840;1272;68782;-64
2021/11/10 10:12:28;;;;;;;9.70;8.10;;;;;;;20.87;39.58;99235.37;107843;1271;58979;-67
2021/11/10 10:14:58;;;;;;;11.40;10.10;;;;;;;21.42;37.67;99228.52;107955;1272;58893;-68
2021/11/10 10:17:48;;;;;;;11.50;9.80;;;;;;;21.39;36.20;99226.58;107964;1272;70626;-67
2021/11/10 10:20:23;;;;;;;12.20;9.90;;;;;;;20.66;38.06;99226.67;108057;1272;68423;-67
2021/11/10 10:22:54;;;;;;;12.10;10.00;;;;;;;20.65;37.61;99220.08;107941;1272;69468;-63
2021/11/10 10:25:41;;;;;;;16.30;13.40;;;;;;;20.41;37.05;99210.54;107887;1272;58990;-65
2021/11/10 10:28:17;;;;;;;11.90;10.00;;;;;;;19.66;37.18;99207.13;107934;1272;58967;-72
2021/11/10 10:30:49;;;;;;;12.70;11.20;;;;;;;20.10;37.32;99199.05;107714;1275;69971;-70
2021/11/10 10:33:29;;;;;;;13.20;11.00;;;;;;;20.46;36.03;99198.45;107948;1275;68209;-72
2021/11/10 10:36:10;;;;;;;15.10;11.70;;;;;;;20.74;35.84;99199.57;107985;1271;68257;-63
2021/11/10 10:38:46;;;;;;;10.80;8.50;;;;;;;21.01;34.66;99197.07;107876;1275;58969;-69
2021/11/10 10:41:18;;;;;;;12.80;11.00;;;;;;;21.52;34.99;99190.81;108092;1272;58849;-67
2021/11/10 10:43:52;;;;;;;12.20;10.10;;;;;;;21.79;34.20;99184.27;107990;1272;71370;-68
2021/11/10 10:46:30;;;;;;;12.20;9.50;;;;;;;22.00;33.73;99179.30;107902;1271;68222;-69
2021/11/10 10:49:23;;;;;;;11.50;9.10;;;;;;;22.25;32.33;99177.95;107873;1272;69376;-64
2021/11/10 10:51:53;;;;;;;15.40;11.80;;;;;;;22.40;33.07;99174.42;107863;1272;58849;-70
2021/11/10 10:54:30;;;;;;;9.90;8.60;;;;;;;22.82;32.57;99175.73;107874;1271;58916;-72
2021/11/10 10:57:01;;;;;;;8.80;7.80;;;;;;;23.38;31.82;99171.77;107919;1272;70236;-69
2021/11/10 10:59:31;;;;;;;10.50;8.80;;;;;;;23.92;31.07;99173.50;107871;1271;69267;-68
2021/11/10 11:02:09;;;;;;;12.60;10.50;;;;;;;24.16;30.04;99171.13;107880;1271;68682;-69
2021/11/10 11:04:45;;;;;;;9.10;7.50;;;;;;;24.36;29.18;99160.66;107832;1274;59043;-64
2021/11/10 11:07:13;;;;;;;8.80;7.90;;;;;;;25.05;31.29;99157.48;107948;1271;58951;-67
2021/11/10 11:09:49;;;;;;;9.10;7.90;;;;;;;25.57;28.82;99152.54;107855;1271;71240;-65
2021/11/10 11:12:31;;;;;;;10.80;8.20;;;;;;;26.05;29.10;99150.86;107855;1275;67694;-65
2021/11/10 11:15:24;;;;;;;10.40;9.00;;;;;;;26.35;27.41;99145.39;107891;1272;69981;-64
2021/11/10 11:17:55;;;;;;;10.10;7.80;;;;;;;26.22;26.07;99146.13;107888;1271;58951;-62
2021/11/10 11:20:34;;;;;;;9.30;7.30;;;;;;;26.32;26.13;99141.09;107842;1271;58929;-65
2021/11/10 11:23:05;;;;;;;9.20;8.20;;;;;;;26.47;25.82;99133.54;107845;1271;70158;-71
2021/11/10 11:25:38;;;;;;;10.60;9.40;;;;;;;26.37;25.19;99131.35;107879;1275;68454;-69
2021/11/10 11:28:13;;;;;;;9.00;7.40;;;;;;;26.35;25.31;99126.98;107900;1272;70141;-69
2021/11/10 11:30:51;;;;;;;12.30;10.10;;;;;;;26.33;25.06;99123.63;107889;1272;59382;-71
2021/11/10 11:33:21;;;;;;;10.70;9.10;;;;;;;26.12;25.13;99119.02;107920;1275;58904;-65
2021/11/10 11:35:59;;;;;;;10.00;8.30;;;;;;;25.87;25.28;99115.31;107942;1272;70669;-66
2021/11/10 11:38:31;;;;;;;9.20;7.20;;;;;;;26.05;25.19;99105.38;107907;1271;68611;-62